sensor_id;sensor_type;location;lat;lon;timestamp;temperature;humidity
3017;DHT22;1518;52.408;13.060;2023-04-20T00:01:06;15.80;72.20
3017;DHT22;1518;52.408;13.060;2023-04-20T00:03:55;15.70;71.70
3017;DHT22;1518;52.408;13.060;2023-04-20T00:06:43;15.80;72.20
3017;DHT22;1518;52.408;13.060;2023-04-20T00:09:32;15.80;72.30
3017;DHT22;1518;52.408;13.060;2023-04-20T00:12:20;15.80;71.50
3017;DHT22;1518;52.408;13.060;2023-04-20T00:15:08;15.80;72.20
3017;DHT22;1518;52.408;13.060;2023-04-20T00:17:56;15.70;72.20
3017;DHT22;1518;52.408;13.060;2023-04-20T00:20:46;15.70;73.00
3017;DHT22;1518;52.408;13.060;2023-04-20T00:23:34;15.70;71.80
3017;DHT22;1518;52.408;13.060;2023-04-20T00:26:22;15.70;72.60
3017;DHT22;1518;52.408;13.060;2023-04-20T00:29:10;15.70;72.70
3017;DHT22;1518;52.408;13.060;2023-04-20T00:31:58;15.60;72.20
3017;DHT22;1518;52.408;13.060;2023-04-20T00:34:46;15.60;72.80
3017;DHT22;1518;52.408;13.060;2023-04-20T00:37:35;15.60;72.60
3017;DHT22;1518;52.408;13.060;2023-04-20T00:40:23;15.70;72.60
3017;DHT22;1518;52.408;13.060;2023-04-20T00:43:12;15.70;71.70
3017;DHT22;1518;52.408;13.060;2023-04-20T00:46:00;15.70;72.70
3017;DHT22;1518;52.408;13.060;2023-04-20T00:48:50;15.70;72.50
3017;DHT22;1518;52.408;13.060;2023-04-20T00:51:39;15.70;73.10
3017;DHT22;1518;52.408;13.060;2023-04-20T00:54:30;15.60;72.50
3017;DHT22;1518;52.408;13.060;2023-04-20T00:57:19;15.60;72.50
3017;DHT22;1518;52.408;13.060;2023-04-20T01:00:10;15.60;72.50
3017;DHT22;1518;52.408;13.060;2023-04-20T01:02:58;15.70;71.90
3017;DHT22;1518;52.408;13.060;2023-04-20T01:05:46;15.70;72.50
3017;DHT22;1518;52.408;13.060;2023-04-20T01:08:34;15.70;72.50
3017;DHT22;1518;52.408;13.060;2023-04-20T01:11:24;15.50;86.80
3017;DHT22;1518;52.408;13.060;2023-04-20T01:14:12;15.60;72.40
3017;DHT22;1518;52.408;13.060;2023-04-20T01:17:00;15.60;72.40
3017;DHT22;1518;52.408;13.060;2023-04-20T01:19:50;15.60;72.60
3017;DHT22;1518;52.408;13.060;2023-04-20T01:22:47;15.60;72.00
3017;DHT22;1518;52.408;13.060;2023-04-20T01:25:35;15.60;72.70
3017;DHT22;1518;52.408;13.060;2023-04-20T01:28:23;15.60;72.80
3017;DHT22;1518;52.408;13.060;2023-04-20T01:31:12;15.60;72.90
3017;DHT22;1518;52.408;13.060;2023-04-20T01:34:00;15.60;72.40
3017;DHT22;1518;52.408;13.060;2023-04-20T01:36:48;15.50;73.00
3017;DHT22;1518;52.408;13.060;2023-04-20T01:39:39;15.60;72.90
3017;DHT22;1518;52.408;13.060;2023-04-20T01:42:27;15.60;72.40
3017;DHT22;1518;52.408;13.060;2023-04-20T01:45:15;15.60;73.00
3017;DHT22;1518;52.408;13.060;2023-04-20T01:48:04;15.60;73.00
3017;DHT22;1518;52.408;13.060;2023-04-20T01:50:52;15.60;72.90
3017;DHT22;1518;52.408;13.060;2023-04-20T01:53:40;15.60;72.30
3017;DHT22;1518;52.408;13.060;2023-04-20T01:56:29;15.60;72.70
3017;DHT22;1518;52.408;13.060;2023-04-20T01:59:17;15.60;72.70
3017;DHT22;1518;52.408;13.060;2023-04-20T02:02:06;15.60;72.10
3017;DHT22;1518;52.408;13.060;2023-04-20T02:04:54;15.60;72.70
3017;DHT22;1518;52.408;13.060;2023-04-20T02:07:42;15.60;72.70
3017;DHT22;1518;52.408;13.060;2023-04-20T02:10:30;15.60;72.80
3017;DHT22;1518;52.408;13.060;2023-04-20T02:13:19;15.60;72.20
3017;DHT22;1518;52.408;13.060;2023-04-20T02:16:07;15.60;72.80
3017;DHT22;1518;52.408;13.060;2023-04-20T02:18:55;15.60;72.90
3017;DHT22;1518;52.408;13.060;2023-04-20T02:21:43;15.50;72.30
3017;DHT22;1518;52.408;13.060;2023-04-20T02:24:32;15.50;72.90
3017;DHT22;1518;52.408;13.060;2023-04-20T02:27:20;15.50;72.80
3017;DHT22;1518;52.408;13.060;2023-04-20T02:30:10;15.50;72.90
3017;DHT22;1518;52.408;13.060;2023-04-20T02:32:58;15.50;72.30
3017;DHT22;1518;52.408;13.060;2023-04-20T02:35:47;15.50;73.00
3017;DHT22;1518;52.408;13.060;2023-04-20T02:38:35;15.50;72.90
3017;DHT22;1518;52.408;13.060;2023-04-20T02:41:23;15.20;80.60
3017;DHT22;1518;52.408;13.060;2023-04-20T02:44:11;15.50;73.00
3017;DHT22;1518;52.408;13.060;2023-04-20T02:47:01;15.50;73.00
3017;DHT22;1518;52.408;13.060;2023-04-20T02:49:49;15.50;73.00
3017;DHT22;1518;52.408;13.060;2023-04-20T02:52:37;15.50;72.40
3017;DHT22;1518;52.408;13.060;2023-04-20T02:55:25;15.50;72.90
3017;DHT22;1518;52.408;13.060;2023-04-20T02:58:13;15.60;73.00
3017;DHT22;1518;52.408;13.060;2023-04-20T03:01:03;15.50;72.90
3017;DHT22;1518;52.408;13.060;2023-04-20T03:03:52;15.50;72.40
3017;DHT22;1518;52.408;13.060;2023-04-20T03:06:41;15.40;72.90
3017;DHT22;1518;52.408;13.060;2023-04-20T03:09:29;15.50;73.00
3017;DHT22;1518;52.408;13.060;2023-04-20T03:12:17;15.50;73.00
3017;DHT22;1518;52.408;13.060;2023-04-20T03:15:06;15.50;73.00
3017;DHT22;1518;52.408;13.060;2023-04-20T03:17:55;15.40;72.90
3017;DHT22;1518;52.408;13.060;2023-04-20T03:20:44;15.40;72.90
3017;DHT22;1518;52.408;13.060;2023-04-20T03:23:32;15.40;72.40
3017;DHT22;1518;52.408;13.060;2023-04-20T03:26:20;15.40;73.00
3017;DHT22;1518;52.408;13.060;2023-04-20T03:29:09;15.40;73.10
3017;DHT22;1518;52.408;13.060;2023-04-20T03:31:57;15.40;72.60
3017;DHT22;1518;52.408;13.060;2023-04-20T03:34:45;15.40;73.10
3017;DHT22;1518;52.408;13.060;2023-04-20T03:37:35;15.40;72.90
3017;DHT22;1518;52.408;13.060;2023-04-20T03:40:23;15.40;72.80
3017;DHT22;1518;52.408;13.060;2023-04-20T03:43:12;15.50;72.30
3017;DHT22;1518;52.408;13.060;2023-04-20T03:46:00;15.50;73.10
3017;DHT22;1518;52.408;13.060;2023-04-20T03:48:48;15.50;73.10
3017;DHT22;1518;52.408;13.060;2023-04-20T03:51:36;15.30;87.60
3017;DHT22;1518;52.408;13.060;2023-04-20T03:54:26;15.40;72.80
3017;DHT22;1518;52.408;13.060;2023-04-20T03:57:14;15.40;72.90
3017;DHT22;1518;52.408;13.060;2023-04-20T04:00:02;15.50;73.00
3017;DHT22;1518;52.408;13.060;2023-04-20T04:02:50;15.40;72.30
3017;DHT22;1518;52.408;13.060;2023-04-20T04:05:39;15.40;72.90
3017;DHT22;1518;52.408;13.060;2023-04-20T04:08:27;15.40;73.10
3017;DHT22;1518;52.408;13.060;2023-04-20T04:11:17;15.40;73.20
3017;DHT22;1518;52.408;13.060;2023-04-20T04:14:05;15.40;73.30
3017;DHT22;1518;52.408;13.060;2023-04-20T04:16:53;15.40;73.30
3017;DHT22;1518;52.408;13.060;2023-04-20T04:19:42;15.40;73.20
3017;DHT22;1518;52.408;13.060;2023-04-20T04:22:30;15.40;73.20
3017;DHT22;1518;52.408;13.060;2023-04-20T04:25:18;15.40;73.10
3017;DHT22;1518;52.408;13.060;2023-04-20T04:28:10;15.40;73.10
3017;DHT22;1518;52.408;13.060;2023-04-20T04:30:58;15.40;73.20
3017;DHT22;1518;52.408;13.060;2023-04-20T04:33:51;15.40;73.10
3017;DHT22;1518;52.408;13.060;2023-04-20T04:36:39;15.40;73.20
3017;DHT22;1518;52.408;13.060;2023-04-20T04:39:28;15.40;73.20
3017;DHT22;1518;52.408;13.060;2023-04-20T04:42:16;15.40;73.20
3017;DHT22;1518;52.408;13.060;2023-04-20T04:45:07;15.40;73.20
3017;DHT22;1518;52.408;13.060;2023-04-20T04:47:56;15.40;73.20
3017;DHT22;1518;52.408;13.060;2023-04-20T04:50:44;15.40;73.10
3017;DHT22;1518;52.408;13.060;2023-04-20T04:53:33;15.40;73.10
3017;DHT22;1518;52.408;13.060;2023-04-20T04:56:21;14.90;72.60
3017;DHT22;1518;52.408;13.060;2023-04-20T04:59:09;15.40;73.10
3017;DHT22;1518;52.408;13.060;2023-04-20T05:01:58;15.50;87.70
3017;DHT22;1518;52.408;13.060;2023-04-20T05:04:47;15.40;73.30
3017;DHT22;1518;52.408;13.060;2023-04-20T05:07:35;15.40;73.20
3017;DHT22;1518;52.408;13.060;2023-04-20T05:10:24;15.30;73.10
3017;DHT22;1518;52.408;13.060;2023-04-20T05:13:12;15.30;73.20
3017;DHT22;1518;52.408;13.060;2023-04-20T05:16:00;15.40;73.10
3017;DHT22;1518;52.408;13.060;2023-04-20T05:18:49;15.40;73.10
3017;DHT22;1518;52.408;13.060;2023-04-20T05:21:37;15.40;73.10
3017;DHT22;1518;52.408;13.060;2023-04-20T05:24:25;15.30;72.30
3017;DHT22;1518;52.408;13.060;2023-04-20T05:27:13;15.30;72.90
3017;DHT22;1518;52.408;13.060;2023-04-20T05:30:02;15.30;73.00
3017;DHT22;1518;52.408;13.060;2023-04-20T05:33:05;15.30;73.10
3017;DHT22;1518;52.408;13.060;2023-04-20T05:35:56;15.40;73.10
3017;DHT22;1518;52.408;13.060;2023-04-20T05:38:45;15.30;73.10
3017;DHT22;1518;52.408;13.060;2023-04-20T05:41:33;15.30;72.90
3017;DHT22;1518;52.408;13.060;2023-04-20T05:44:21;15.30;72.90
3017;DHT22;1518;52.408;13.060;2023-04-20T05:47:09;15.40;73.00
3017;DHT22;1518;52.408;13.060;2023-04-20T05:49:58;15.40;73.00
3017;DHT22;1518;52.408;13.060;2023-04-20T05:52:47;15.40;73.10
3017;DHT22;1518;52.408;13.060;2023-04-20T05:55:35;15.30;73.00
3017;DHT22;1518;52.408;13.060;2023-04-20T05:58:24;15.30;73.10
3017;DHT22;1518;52.408;13.060;2023-04-20T06:01:13;15.30;73.00
3017;DHT22;1518;52.408;13.060;2023-04-20T06:04:01;15.30;73.10
3017;DHT22;1518;52.408;13.060;2023-04-20T06:06:49;15.30;73.10
3017;DHT22;1518;52.408;13.060;2023-04-20T06:09:39;15.40;73.30
3017;DHT22;1518;52.408;13.060;2023-04-20T06:12:27;15.30;73.20
3017;DHT22;1518;52.408;13.060;2023-04-20T06:15:16;15.30;73.30
3017;DHT22;1518;52.408;13.060;2023-04-20T06:18:04;15.30;73.30
3017;DHT22;1518;52.408;13.060;2023-04-20T06:20:52;15.40;74.20
3017;DHT22;1518;52.408;13.060;2023-04-20T06:23:40;15.40;73.40
3017;DHT22;1518;52.408;13.060;2023-04-20T06:26:30;15.40;73.20
3017;DHT22;1518;52.408;13.060;2023-04-20T06:29:18;15.40;73.30
3017;DHT22;1518;52.408;13.060;2023-04-20T06:32:06;15.40;73.40
3017;DHT22;1518;52.408;13.060;2023-04-20T06:34:55;15.40;73.50
3017;DHT22;1518;52.408;13.060;2023-04-20T06:37:43;15.50;73.60
3017;DHT22;1518;52.408;13.060;2023-04-20T06:40:31;15.80;73.20
3017;DHT22;1518;52.408;13.060;2023-04-20T06:43:20;16.40;72.30
3017;DHT22;1518;52.408;13.060;2023-04-20T06:46:08;18.40;72.70
3017;DHT22;1518;52.408;13.060;2023-04-20T06:48:57;17.30;70.50
3017;DHT22;1518;52.408;13.060;2023-04-20T06:51:46;18.10;75.20
3017;DHT22;1518;52.408;13.060;2023-04-20T06:54:34;18.00;68.70
3017;DHT22;1518;52.408;13.060;2023-04-20T06:57:22;18.30;68.00
3017;DHT22;1518;52.408;13.060;2023-04-20T07:00:12;18.60;67.30
3017;DHT22;1518;52.408;13.060;2023-04-20T07:03:00;19.00;66.00
3017;DHT22;1518;52.408;13.060;2023-04-20T07:05:49;19.20;66.50
3017;DHT22;1518;52.408;13.060;2023-04-20T07:08:37;19.40;65.80
3017;DHT22;1518;52.408;13.060;2023-04-20T07:11:26;19.60;65.20
3017;DHT22;1518;52.408;13.060;2023-04-20T07:14:14;19.90;64.00
3017;DHT22;1518;52.408;13.060;2023-04-20T07:17:04;20.10;64.20
3017;DHT22;1518;52.408;13.060;2023-04-20T07:19:52;20.40;63.60
3017;DHT22;1518;52.408;13.060;2023-04-20T07:22:40;20.60;63.40
3017;DHT22;1518;52.408;13.060;2023-04-20T07:25:28;20.70;62.90
3017;DHT22;1518;52.408;13.060;2023-04-20T07:28:17;20.90;62.70
3017;DHT22;1518;52.408;13.060;2023-04-20T07:31:05;21.00;62.20
3017;DHT22;1518;52.408;13.060;2023-04-20T07:33:55;21.10;61.80
3017;DHT22;1518;52.408;13.060;2023-04-20T07:36:43;21.20;61.70
3017;DHT22;1518;52.408;13.060;2023-04-20T07:39:31;21.40;61.50
3017;DHT22;1518;52.408;13.060;2023-04-20T07:42:19;21.50;61.40
3017;DHT22;1518;52.408;13.060;2023-04-20T07:45:09;21.60;61.20
3017;DHT22;1518;52.408;13.060;2023-04-20T07:47:57;21.50;61.10
3017;DHT22;1518;52.408;13.060;2023-04-20T07:50:48;21.60;61.10
3017;DHT22;1518;52.408;13.060;2023-04-20T07:53:36;21.60;60.80
3017;DHT22;1518;52.408;13.060;2023-04-20T07:56:25;21.70;60.80
3017;DHT22;1518;52.408;13.060;2023-04-20T07:59:13;21.90;60.70
3017;DHT22;1518;52.408;13.060;2023-04-20T08:02:02;22.00;59.80
3017;DHT22;1518;52.408;13.060;2023-04-20T08:04:50;22.00;60.40
3017;DHT22;1518;52.408;13.060;2023-04-20T08:07:40;22.10;60.30
3017;DHT22;1518;52.408;13.060;2023-04-20T08:10:28;22.20;60.10
3017;DHT22;1518;52.408;13.060;2023-04-20T08:13:16;22.30;59.90
3017;DHT22;1518;52.408;13.060;2023-04-20T08:16:05;22.30;59.70
3017;DHT22;1518;52.408;13.060;2023-04-20T08:18:53;22.30;59.60
3017;DHT22;1518;52.408;13.060;2023-04-20T08:21:41;22.20;70.70
3017;DHT22;1518;52.408;13.060;2023-04-20T08:24:31;22.40;59.60
3017;DHT22;1518;52.408;13.060;2023-04-20T08:27:19;22.40;59.50
3017;DHT22;1518;52.408;13.060;2023-04-20T08:30:07;22.50;59.60
3017;DHT22;1518;52.408;13.060;2023-04-20T08:32:56;22.40;58.90
3017;DHT22;1518;52.408;13.060;2023-04-20T08:35:45;22.40;59.50
3017;DHT22;1518;52.408;13.060;2023-04-20T08:38:33;22.40;59.30
3017;DHT22;1518;52.408;13.060;2023-04-20T08:41:24;22.50;59.50
3017;DHT22;1518;52.408;13.060;2023-04-20T08:44:12;22.40;58.90
3017;DHT22;1518;52.408;13.060;2023-04-20T08:47:02;22.50;59.50
3017;DHT22;1518;52.408;13.060;2023-04-20T08:49:52;22.50;60.00
3017;DHT22;1518;52.408;13.060;2023-04-20T08:52:41;22.50;58.80
3017;DHT22;1518;52.408;13.060;2023-04-20T08:55:29;22.40;59.30
3017;DHT22;1518;52.408;13.060;2023-04-20T08:58:19;22.40;59.40
3017;DHT22;1518;52.408;13.060;2023-04-20T09:01:07;22.40;59.40
3017;DHT22;1518;52.408;13.060;2023-04-20T09:03:56;22.40;58.80
3017;DHT22;1518;52.408;13.060;2023-04-20T09:06:45;22.40;59.30
3017;DHT22;1518;52.408;13.060;2023-04-20T09:09:33;22.50;59.40
3017;DHT22;1518;52.408;13.060;2023-04-20T09:12:21;22.50;58.80
3017;DHT22;1518;52.408;13.060;2023-04-20T09:15:24;22.60;59.40
3017;DHT22;1518;52.408;13.060;2023-04-20T09:18:13;22.50;59.90
3017;DHT22;1518;52.408;13.060;2023-04-20T09:21:07;22.60;59.30
3017;DHT22;1518;52.408;13.060;2023-04-20T09:23:56;22.60;58.70
3017;DHT22;1518;52.408;13.060;2023-04-20T09:26:44;22.70;59.30
3017;DHT22;1518;52.408;13.060;2023-04-20T09:29:33;22.60;59.00
3017;DHT22;1518;52.408;13.060;2023-04-20T09:32:23;22.70;58.60
3017;DHT22;1518;52.408;13.060;2023-04-20T09:35:11;22.70;59.10
3017;DHT22;1518;52.408;13.060;2023-04-20T09:37:59;22.70;59.00
3017;DHT22;1518;52.408;13.060;2023-04-20T09:40:48;22.70;59.10
3017;DHT22;1518;52.408;13.060;2023-04-20T09:43:38;22.70;58.70
3017;DHT22;1518;52.408;13.060;2023-04-20T09:46:28;22.70;59.30
3017;DHT22;1518;52.408;13.060;2023-04-20T09:49:19;22.60;59.30
3017;DHT22;1518;52.408;13.060;2023-04-20T09:52:08;22.60;59.20
3017;DHT22;1518;52.408;13.060;2023-04-20T09:54:56;22.50;59.50
3017;DHT22;1518;52.408;13.060;2023-04-20T09:57:45;22.60;59.90
3017;DHT22;1518;52.408;13.060;2023-04-20T10:00:33;22.40;59.70
3017;DHT22;1518;52.408;13.060;2023-04-20T10:03:21;22.40;59.50
3017;DHT22;1518;52.408;13.060;2023-04-20T10:06:19;22.30;60.10
3017;DHT22;1518;52.408;13.060;2023-04-20T10:09:07;22.40;60.40
3017;DHT22;1518;52.408;13.060;2023-04-20T10:12:04;22.20;70.80
3017;DHT22;1518;52.408;13.060;2023-04-20T10:14:54;22.40;60.20
3017;DHT22;1518;52.408;13.060;2023-04-20T10:17:43;22.50;60.10
3017;DHT22;1518;52.408;13.060;2023-04-20T10:20:32;22.70;59.90
3017;DHT22;1518;52.408;13.060;2023-04-20T10:23:21;22.80;59.10
3017;DHT22;1518;52.408;13.060;2023-04-20T10:26:09;22.90;59.50
3017;DHT22;1518;52.408;13.060;2023-04-20T10:28:57;23.00;59.30
3017;DHT22;1518;52.408;13.060;2023-04-20T10:31:45;23.00;63.00
3017;DHT22;1518;52.408;13.060;2023-04-20T10:34:35;23.10;59.20
3017;DHT22;1518;52.408;13.060;2023-04-20T10:37:23;23.20;59.30
3017;DHT22;1518;52.408;13.060;2023-04-20T10:40:13;23.20;59.20
3017;DHT22;1518;52.408;13.060;2023-04-20T10:43:02;23.20;58.60
3017;DHT22;1518;52.408;13.060;2023-04-20T10:45:50;23.30;59.20
3017;DHT22;1518;52.408;13.060;2023-04-20T10:48:38;23.30;59.10
3017;DHT22;1518;52.408;13.060;2023-04-20T10:51:35;23.30;59.20
3017;DHT22;1518;52.408;13.060;2023-04-20T10:54:24;23.30;58.70
3017;DHT22;1518;52.408;13.060;2023-04-20T10:57:16;23.20;59.10
3017;DHT22;1518;52.408;13.060;2023-04-20T11:00:14;23.20;59.20
3017;DHT22;1518;52.408;13.060;2023-04-20T11:03:02;23.20;58.70
3017;DHT22;1518;52.408;13.060;2023-04-20T11:05:51;23.20;59.40
3017;DHT22;1518;52.408;13.060;2023-04-20T11:08:40;23.10;59.20
3017;DHT22;1518;52.408;13.060;2023-04-20T11:11:29;23.00;59.10
3017;DHT22;1518;52.408;13.060;2023-04-20T11:14:19;23.00;58.60
3017;DHT22;1518;52.408;13.060;2023-04-20T11:17:07;22.90;59.20
3017;DHT22;1518;52.408;13.060;2023-04-20T11:20:03;22.90;59.40
3017;DHT22;1518;52.408;13.060;2023-04-20T11:22:55;22.80;59.00
3017;DHT22;1518;52.408;13.060;2023-04-20T11:25:48;22.90;59.70
3017;DHT22;1518;52.408;13.060;2023-04-20T11:28:37;22.90;59.70
3017;DHT22;1518;52.408;13.060;2023-04-20T11:31:26;22.90;59.70
3017;DHT22;1518;52.408;13.060;2023-04-20T11:34:16;23.00;59.10
3017;DHT22;1518;52.408;13.060;2023-04-20T11:37:04;23.10;59.70
3017;DHT22;1518;52.408;13.060;2023-04-20T11:40:00;23.20;59.50
3017;DHT22;1518;52.408;13.060;2023-04-20T11:42:50;23.30;58.80
3017;DHT22;1518;52.408;13.060;2023-04-20T11:45:38;23.30;60.00
3017;DHT22;1518;52.408;13.060;2023-04-20T11:48:30;23.50;59.30
3017;DHT22;1518;52.408;13.060;2023-04-20T11:51:19;23.40;59.20
3017;DHT22;1518;52.408;13.060;2023-04-20T11:54:07;23.50;58.60
3017;DHT22;1518;52.408;13.060;2023-04-20T11:56:55;23.50;59.10
3017;DHT22;1518;52.408;13.060;2023-04-20T11:59:44;23.50;59.10
3017;DHT22;1518;52.408;13.060;2023-04-20T12:02:34;23.50;58.50
3017;DHT22;1518;52.408;13.060;2023-04-20T12:05:24;23.50;59.10
3017;DHT22;1518;52.408;13.060;2023-04-20T12:08:12;23.50;59.00
3017;DHT22;1518;52.408;13.060;2023-04-20T12:11:03;23.40;58.90
3017;DHT22;1518;52.408;13.060;2023-04-20T12:13:51;23.30;58.50
3017;DHT22;1518;52.408;13.060;2023-04-20T12:16:40;23.30;59.20
3017;DHT22;1518;52.408;13.060;2023-04-20T12:19:28;23.20;59.10
3017;DHT22;1518;52.408;13.060;2023-04-20T12:22:18;23.20;59.00
3017;DHT22;1518;52.408;13.060;2023-04-20T12:25:06;23.20;59.50
3017;DHT22;1518;52.408;13.060;2023-04-20T12:27:55;23.20;59.60
3017;DHT22;1518;52.408;13.060;2023-04-20T12:30:43;23.40;59.80
3017;DHT22;1518;52.408;13.060;2023-04-20T12:33:31;23.40;59.20
3017;DHT22;1518;52.408;13.060;2023-04-20T12:36:19;23.40;59.70
3017;DHT22;1518;52.408;13.060;2023-04-20T12:39:09;23.50;59.70
3017;DHT22;1518;52.408;13.060;2023-04-20T12:41:57;23.80;70.00
3017;DHT22;1518;52.408;13.060;2023-04-20T12:44:46;23.70;59.70
3017;DHT22;1518;52.408;13.060;2023-04-20T12:47:34;23.70;59.40
3017;DHT22;1518;52.408;13.060;2023-04-20T12:50:22;23.80;59.50
3017;DHT22;1518;52.408;13.060;2023-04-20T12:53:10;24.00;58.90
3017;DHT22;1518;52.408;13.060;2023-04-20T12:56:00;24.00;59.20
3017;DHT22;1518;52.408;13.060;2023-04-20T12:58:48;24.00;59.20
3017;DHT22;1518;52.408;13.060;2023-04-20T13:01:36;24.10;59.30
3017;DHT22;1518;52.408;13.060;2023-04-20T13:04:24;24.10;58.70
3017;DHT22;1518;52.408;13.060;2023-04-20T13:07:12;24.10;59.20
3017;DHT22;1518;52.408;13.060;2023-04-20T13:10:00;24.10;59.10
3017;DHT22;1518;52.408;13.060;2023-04-20T13:12:50;24.10;58.90
3017;DHT22;1518;52.408;13.060;2023-04-20T13:15:39;24.00;59.10
3017;DHT22;1518;52.408;13.060;2023-04-20T13:18:27;24.00;59.40
3017;DHT22;1518;52.408;13.060;2023-04-20T13:21:15;24.00;59.40
3017;DHT22;1518;52.408;13.060;2023-04-20T13:24:03;24.00;58.80
3017;DHT22;1518;52.408;13.060;2023-04-20T13:26:53;23.90;60.00
3017;DHT22;1518;52.408;13.060;2023-04-20T13:29:44;23.70;60.20
3017;DHT22;1518;52.408;13.060;2023-04-20T13:32:33;23.60;60.50
3017;DHT22;1518;52.408;13.060;2023-04-20T13:35:24;23.60;61.20
3017;DHT22;1518;52.408;13.060;2023-04-20T13:38:13;23.50;60.80
3017;DHT22;1518;52.408;13.060;2023-04-20T13:41:01;23.40;61.20
3017;DHT22;1518;52.408;13.060;2023-04-20T13:43:50;23.40;60.70
3017;DHT22;1518;52.408;13.060;2023-04-20T13:46:39;23.20;61.50
3017;DHT22;1518;52.408;13.060;2023-04-20T13:49:27;23.20;61.30
3017;DHT22;1518;52.408;13.060;2023-04-20T13:52:16;23.00;60.80
3017;DHT22;1518;52.408;13.060;2023-04-20T13:55:05;23.00;61.90
3017;DHT22;1518;52.408;13.060;2023-04-20T13:57:53;22.90;61.60
3017;DHT22;1518;52.408;13.060;2023-04-20T14:00:41;22.90;61.70
3017;DHT22;1518;52.408;13.060;2023-04-20T14:03:31;22.70;61.80
3017;DHT22;1518;52.408;13.060;2023-04-20T14:06:19;22.70;62.10
3017;DHT22;1518;52.408;13.060;2023-04-20T14:09:07;22.60;62.60
3017;DHT22;1518;52.408;13.060;2023-04-20T14:11:55;22.70;75.10
3017;DHT22;1518;52.408;13.060;2023-04-20T14:14:44;22.50;63.70
3017;DHT22;1518;52.408;13.060;2023-04-20T14:17:32;22.50;62.90
3017;DHT22;1518;52.408;13.060;2023-04-20T14:20:21;22.50;61.90
3017;DHT22;1518;52.408;13.060;2023-04-20T14:23:09;22.40;61.90
3017;DHT22;1518;52.408;13.060;2023-04-20T14:25:58;22.40;62.70
3017;DHT22;1518;52.408;13.060;2023-04-20T14:28:46;22.30;64.10
3017;DHT22;1518;52.408;13.060;2023-04-20T14:31:35;22.30;63.50
3017;DHT22;1518;52.408;13.060;2023-04-20T14:34:23;22.20;63.70
3017;DHT22;1518;52.408;13.060;2023-04-20T14:37:13;22.10;66.00
3017;DHT22;1518;52.408;13.060;2023-04-20T14:40:01;22.00;66.30
3017;DHT22;1518;52.408;13.060;2023-04-20T14:42:51;21.80;66.30
3017;DHT22;1518;52.408;13.060;2023-04-20T14:45:39;21.80;66.70
3017;DHT22;1518;52.408;13.060;2023-04-20T14:48:30;21.80;66.80
3017;DHT22;1518;52.408;13.060;2023-04-20T14:51:18;21.80;67.90
3017;DHT22;1518;52.408;13.060;2023-04-20T14:54:08;21.70;67.60
3017;DHT22;1518;52.408;13.060;2023-04-20T14:56:56;21.60;67.80
3017;DHT22;1518;52.408;13.060;2023-04-20T14:59:45;21.40;67.50
3017;DHT22;1518;52.408;13.060;2023-04-20T15:02:33;21.30;68.10
3017;DHT22;1518;52.408;13.060;2023-04-20T15:05:21;21.20;67.60
3017;DHT22;1518;52.408;13.060;2023-04-20T15:08:10;21.30;67.60
3017;DHT22;1518;52.408;13.060;2023-04-20T15:10:59;21.60;67.50
3017;DHT22;1518;52.408;13.060;2023-04-20T15:13:48;21.90;67.10
3017;DHT22;1518;52.408;13.060;2023-04-20T15:16:37;22.10;66.80
3017;DHT22;1518;52.408;13.060;2023-04-20T15:19:25;22.30;64.90
3017;DHT22;1518;52.408;13.060;2023-04-20T15:22:14;22.20;65.20
3017;DHT22;1518;52.408;13.060;2023-04-20T15:25:02;22.20;66.10
3017;DHT22;1518;52.408;13.060;2023-04-20T15:27:52;22.20;65.00
3017;DHT22;1518;52.408;13.060;2023-04-20T15:30:40;22.20;64.90
3017;DHT22;1518;52.408;13.060;2023-04-20T15:33:28;22.10;66.00
3017;DHT22;1518;52.408;13.060;2023-04-20T15:36:18;22.00;65.00
3017;DHT22;1518;52.408;13.060;2023-04-20T15:39:06;22.10;65.90
3017;DHT22;1518;52.408;13.060;2023-04-20T15:41:54;21.50;74.60
3017;DHT22;1518;52.408;13.060;2023-04-20T15:44:44;22.00;63.70
3017;DHT22;1518;52.408;13.060;2023-04-20T15:47:32;22.00;65.20
3017;DHT22;1518;52.408;13.060;2023-04-20T15:50:21;21.90;65.30
3017;DHT22;1518;52.408;13.060;2023-04-20T15:53:09;21.90;64.10
3017;DHT22;1518;52.408;13.060;2023-04-20T15:55:58;22.00;64.30
3017;DHT22;1518;52.408;13.060;2023-04-20T15:58:46;22.00;65.50
3017;DHT22;1518;52.408;13.060;2023-04-20T16:01:36;22.00;65.70
3017;DHT22;1518;52.408;13.060;2023-04-20T16:04:24;21.80;64.50
3017;DHT22;1518;52.408;13.060;2023-04-20T16:07:13;21.60;66.60
3017;DHT22;1518;52.408;13.060;2023-04-20T16:10:02;21.50;66.40
3017;DHT22;1518;52.408;13.060;2023-04-20T16:12:52;21.30;67.70
3017;DHT22;1518;52.408;13.060;2023-04-20T16:15:40;21.20;67.70
3017;DHT22;1518;52.408;13.060;2023-04-20T16:18:29;21.10;67.20
3017;DHT22;1518;52.408;13.060;2023-04-20T16:21:20;21.20;67.00
3017;DHT22;1518;52.408;13.060;2023-04-20T16:24:09;21.30;66.10
3017;DHT22;1518;52.408;13.060;2023-04-20T16:26:57;21.30;66.70
3017;DHT22;1518;52.408;13.060;2023-04-20T16:29:47;21.30;66.30
3017;DHT22;1518;52.408;13.060;2023-04-20T16:32:35;21.40;65.50
3017;DHT22;1518;52.408;13.060;2023-04-20T16:35:27;21.40;66.10
3017;DHT22;1518;52.408;13.060;2023-04-20T16:38:16;21.50;66.20
3017;DHT22;1518;52.408;13.060;2023-04-20T16:41:04;21.60;65.40
3017;DHT22;1518;52.408;13.060;2023-04-20T16:43:52;21.60;64.00
3017;DHT22;1518;52.408;13.060;2023-04-20T16:46:40;21.60;64.40
3017;DHT22;1518;52.408;13.060;2023-04-20T16:49:28;21.60;65.40
3017;DHT22;1518;52.408;13.060;2023-04-20T16:52:18;21.50;65.20
3017;DHT22;1518;52.408;13.060;2023-04-20T16:55:06;21.50;65.90
3017;DHT22;1518;52.408;13.060;2023-04-20T16:57:54;21.40;65.80
3017;DHT22;1518;52.408;13.060;2023-04-20T17:00:46;21.40;65.80
3017;DHT22;1518;52.408;13.060;2023-04-20T17:03:34;21.30;65.10
3017;DHT22;1518;52.408;13.060;2023-04-20T17:06:22;21.30;66.10
3017;DHT22;1518;52.408;13.060;2023-04-20T17:09:11;21.30;66.60
3017;DHT22;1518;52.408;13.060;2023-04-20T17:12:00;21.30;77.50
3017;DHT22;1518;52.408;13.060;2023-04-20T17:14:48;21.30;66.60
3017;DHT22;1518;52.408;13.060;2023-04-20T17:17:36;21.30;67.00
3017;DHT22;1518;52.408;13.060;2023-04-20T17:20:24;21.30;67.20
3017;DHT22;1518;52.408;13.060;2023-04-20T17:23:14;21.20;67.30
3017;DHT22;1518;52.408;13.060;2023-04-20T17:26:04;21.20;67.60
3017;DHT22;1518;52.408;13.060;2023-04-20T17:28:52;21.20;68.30
3017;DHT22;1518;52.408;13.060;2023-04-20T17:31:40;21.10;67.30
3017;DHT22;1518;52.408;13.060;2023-04-20T17:34:29;21.10;66.90
3017;DHT22;1518;52.408;13.060;2023-04-20T17:37:17;21.10;67.60
3017;DHT22;1518;52.408;13.060;2023-04-20T17:40:06;21.00;67.80
3017;DHT22;1518;52.408;13.060;2023-04-20T17:42:56;20.90;67.40
3017;DHT22;1518;52.408;13.060;2023-04-20T17:45:46;20.90;68.30
3017;DHT22;1518;52.408;13.060;2023-04-20T17:48:35;20.90;68.50
3017;DHT22;1518;52.408;13.060;2023-04-20T17:51:23;20.80;68.50
3017;DHT22;1518;52.408;13.060;2023-04-20T17:54:11;20.70;67.80
3017;DHT22;1518;52.408;13.060;2023-04-20T17:56:59;20.70;68.70
3017;DHT22;1518;52.408;13.060;2023-04-20T17:59:48;20.70;68.90
3017;DHT22;1518;52.408;13.060;2023-04-20T18:02:36;20.50;68.30